createdAt,value
2018-08-16T00:00:47.525Z,97800.09
2018-08-16T00:03:19.407Z,97806.35
2018-08-16T00:05:51.625Z,97800.06
2018-08-16T00:08:23.266Z,97796.13
2018-08-16T00:10:54.256Z,97801.63
2018-08-16T00:13:24.620Z,97802.22
2018-08-16T00:15:55.946Z,97793.79
2018-08-16T00:18:29.726Z,97797.20
2018-08-16T00:21:00.613Z,97801.07
2018-08-16T00:23:31.255Z,97798.77
2018-08-16T00:26:03.715Z,97797.16
2018-08-16T00:28:34.884Z,97802.28
2018-08-16T00:31:05.587Z,97797.44
2018-08-16T00:36:30.962Z,97792.43
2018-08-16T00:38:59.984Z,97793.83
2018-08-16T00:41:28.965Z,97792.90
2018-08-16T00:43:57.812Z,97789.52
2018-08-16T00:46:26.654Z,97783.20
2018-08-16T00:48:55.589Z,97791.66
2018-08-16T00:51:24.619Z,97790.97
2018-08-16T00:53:53.463Z,97794.09
2018-08-16T00:56:22.363Z,97795.56
2018-08-16T00:58:51.249Z,97795.91
2018-08-16T01:01:20.191Z,97795.25
2018-08-16T01:03:49.008Z,97793.77
2018-08-16T01:06:17.924Z,97796.53
2018-08-16T01:08:46.827Z,97796.58
2018-08-16T01:11:15.699Z,97793.98
2018-08-16T01:13:44.548Z,97792.53
2018-08-16T01:16:13.504Z,97790.52
2018-08-16T01:18:42.855Z,97788.18
2018-08-16T01:21:12.985Z,97788.48
2018-08-16T01:23:42.961Z,97786.04
2018-08-16T01:26:12.915Z,97783.49
2018-08-16T01:28:41.848Z,97780.02
2018-08-16T01:31:10.671Z,97779.55
2018-08-16T01:33:44.711Z,97776.06
2018-08-16T01:36:14.939Z,97776.37
2018-08-16T01:38:45.740Z,97771.66
2018-08-16T01:41:16.945Z,97768.53
2018-08-16T01:43:47.730Z,97767.37
2018-08-16T01:46:18.181Z,97768.25
2018-08-16T01:48:48.904Z,97766.70
2018-08-16T01:51:18.764Z,97763.12
2018-08-16T01:53:50.606Z,97759.95
2018-08-16T01:56:22.077Z,97759.09
2018-08-16T01:58:53.357Z,97761.75
2018-08-16T02:01:24.836Z,97761.56
2018-08-16T02:03:55.800Z,97760.58
2018-08-16T02:06:25.938Z,97760.17
2018-08-16T02:08:56.724Z,97766.50
2018-08-16T02:11:29.228Z,97768.30
2018-08-16T02:13:59.359Z,97765.63
2018-08-16T02:16:29.526Z,97767.15
2018-08-16T02:19:02.595Z,97765.84
2018-08-16T02:21:34.713Z,97764.17
2018-08-16T02:24:04.759Z,97770.42
2018-08-16T02:26:35.406Z,97768.42
2018-08-16T02:29:06.915Z,97770.14
2018-08-16T02:31:36.597Z,97771.91
2018-08-16T02:34:07.872Z,97769.73
2018-08-16T02:36:39.131Z,97766.59
2018-08-16T02:39:11.657Z,97769.08
2018-08-16T02:41:41.966Z,97769.96
2018-08-16T02:44:16.735Z,97774.16
2018-08-16T02:46:47.288Z,97779.78
2018-08-16T02:49:18.506Z,97777.11
2018-08-16T02:51:49.421Z,97781.78
2018-08-16T02:54:20.594Z,97783.77
2018-08-16T02:56:51.316Z,97784.72
2018-08-16T02:59:21.683Z,97781.75
2018-08-16T03:01:52.261Z,97779.92
2018-08-16T03:04:25.025Z,97782.66
2018-08-16T03:06:56.596Z,97778.31
2018-08-16T03:09:27.245Z,97784.38
2018-08-16T03:11:58.057Z,97784.27
2018-08-16T03:14:30.839Z,97781.33
2018-08-16T03:17:02.341Z,97777.97
2018-08-16T03:19:33.519Z,97770.97
2018-08-16T03:22:02.385Z,97766.31
2018-08-16T03:24:31.296Z,97766.17
2018-08-16T03:27:01.176Z,97767.78
2018-08-16T03:29:31.102Z,97766.41
2018-08-16T03:32:00.000Z,97774.01
2018-08-16T03:34:29.241Z,97776.64
2018-08-16T03:36:58.182Z,97777.80
2018-08-16T03:39:27.089Z,97767.47
2018-08-16T03:41:56.026Z,97768.66
2018-08-16T03:44:24.873Z,97774.95
2018-08-16T03:46:53.829Z,97776.60
2018-08-16T03:49:22.993Z,97776.28
2018-08-16T03:51:51.983Z,97776.17
2018-08-16T03:54:20.948Z,97779.90
2018-08-16T03:56:49.761Z,97783.83
2018-08-16T03:59:18.596Z,97784.56
2018-08-16T04:01:47.530Z,97784.31
2018-08-16T04:04:16.390Z,97785.22
2018-08-16T04:06:45.415Z,97782.91
2018-08-16T04:09:14.299Z,97795.88
2018-08-16T04:14:18.223Z,97795.88
2018-08-16T04:16:47.466Z,97789.85
2018-08-16T04:19:16.606Z,97794.44
2018-08-16T04:21:45.472Z,97797.48
2018-08-16T04:24:14.319Z,97794.48
2018-08-16T04:26:43.253Z,97799.55
2018-08-16T04:29:12.113Z,97798.77
2018-08-16T04:31:40.921Z,97794.81
2018-08-16T04:34:09.739Z,97790.17
2018-08-16T04:36:38.725Z,97788.91
2018-08-16T04:39:08.315Z,97792.77
2018-08-16T04:41:37.594Z,97789.70
2018-08-16T04:44:06.628Z,97794.83
2018-08-16T04:46:35.484Z,97789.53
2018-08-16T04:49:04.420Z,97790.26
2018-08-16T04:51:33.300Z,97789.56
2018-08-16T04:54:02.146Z,97793.59
2018-08-16T04:56:32.172Z,97788.34
2018-08-16T04:59:02.175Z,97788.45
2018-08-16T05:01:32.123Z,97790.75
2018-08-16T05:04:02.013Z,97784.19
2018-08-16T05:06:31.920Z,97783.27
2018-08-16T05:09:00.766Z,97781.14
2018-08-16T05:11:29.751Z,97784.34
2018-08-16T05:13:58.933Z,97785.66
2018-08-16T05:16:27.667Z,97786.39
2018-08-16T05:18:57.558Z,97777.31
2018-08-16T05:21:26.421Z,97775.67
2018-08-16T05:23:55.324Z,97780.55
2018-08-16T05:26:24.201Z,97781.47
2018-08-16T05:28:54.008Z,97774.72
2018-08-16T05:31:22.958Z,97772.55
2018-08-16T05:33:51.837Z,97775.75
2018-08-16T05:36:20.719Z,97778.09
2018-08-16T05:38:49.565Z,97783.48
2018-08-16T05:41:18.753Z,97779.34
2018-08-16T05:43:47.765Z,97780.34
2018-08-16T05:46:16.953Z,97778.47
2018-08-16T05:48:47.213Z,97774.89
2018-08-16T05:51:16.103Z,97777.05
2018-08-16T05:53:44.956Z,97780.30
2018-08-16T05:56:13.859Z,97778.17
2018-08-16T05:58:43.739Z,97780.14
2018-08-16T06:01:12.770Z,97779.80
2018-08-16T06:03:41.674Z,97779.27
2018-08-16T06:06:10.449Z,97777.02
2018-08-16T06:08:39.266Z,97775.69
2018-08-16T06:11:08.099Z,97768.16
2018-08-16T06:13:36.990Z,97774.80
2018-08-16T06:16:06.715Z,97770.25
2018-08-16T06:18:35.506Z,97765.95
2018-08-16T06:21:04.543Z,97772.20
2018-08-16T06:23:33.412Z,97769.52
2018-08-16T06:26:02.785Z,97771.96
2018-08-16T06:28:33.180Z,97763.92
2018-08-16T06:31:02.973Z,97766.28
2018-08-16T06:33:32.999Z,97766.56
2018-08-16T06:38:37.037Z,97767.95
2018-08-16T06:41:05.870Z,97770.44
2018-08-16T06:43:34.735Z,97767.73
2018-08-16T06:46:03.726Z,97768.58
2018-08-16T06:48:33.293Z,97768.28
2018-08-16T06:51:09.014Z,97768.84
2018-08-16T06:53:38.346Z,97770.16
2018-08-16T06:56:07.143Z,97765.85
2018-08-16T06:58:35.974Z,97765.61
2018-08-16T07:01:04.803Z,97764.25
2018-08-16T07:03:33.580Z,97762.38
2018-08-16T07:06:06.325Z,97760.97
2018-08-16T07:08:35.194Z,97760.11
2018-08-16T07:11:04.237Z,97761.70
2018-08-16T07:13:33.437Z,97759.54
2018-08-16T07:16:03.687Z,97757.96
2018-08-16T07:18:33.709Z,97757.39
2018-08-16T07:21:03.377Z,97763.59
2018-08-16T07:23:32.293Z,97760.02
2018-08-16T07:26:01.221Z,97765.01
2018-08-16T07:28:30.114Z,97759.38
2018-08-16T07:30:59.271Z,97759.02
2018-08-16T07:33:28.217Z,97765.52
2018-08-16T07:35:57.058Z,97759.36
2018-08-16T07:38:25.865Z,97762.28
2018-08-16T07:40:54.687Z,97762.98
2018-08-16T07:43:23.694Z,97762.44
2018-08-16T07:45:52.677Z,97760.39
2018-08-16T07:48:21.414Z,97764.51
2018-08-16T07:50:50.256Z,97768.64
2018-08-16T07:53:19.194Z,97761.79
2018-08-16T07:55:48.057Z,97765.29
2018-08-16T07:58:16.960Z,97758.93
2018-08-16T08:00:46.425Z,97760.94
2018-08-16T08:03:15.345Z,97754.22
2018-08-16T08:05:44.272Z,97760.09
2018-08-16T08:08:15.215Z,97752.16
2018-08-16T08:10:44.114Z,97753.59
2018-08-16T08:13:13.043Z,97746.80
2018-08-16T08:15:41.896Z,97749.78
2018-08-16T08:18:10.807Z,97750.87
2018-08-16T08:20:39.736Z,97751.27
2018-08-16T08:23:08.663Z,97753.31
2018-08-16T08:25:37.585Z,97755.34
2018-08-16T08:28:07.239Z,97750.86
2018-08-16T08:30:36.062Z,97757.20
2018-08-16T08:33:05.140Z,97757.34
2018-08-16T08:35:34.127Z,97761.05
2018-08-16T08:38:16.188Z,97760.67
2018-08-16T08:40:44.982Z,97754.42
2018-08-16T08:45:23.446Z,97757.55
2018-08-16T08:47:56.120Z,97752.85
2018-08-16T08:50:25.443Z,97749.63
2018-08-16T08:52:59.150Z,97752.00
2018-08-16T08:55:39.240Z,97754.03
2018-08-16T08:58:19.234Z,97750.13
2018-08-16T09:00:48.184Z,97752.34
2018-08-16T09:03:17.067Z,97750.68
2018-08-16T09:05:45.932Z,97748.31
2018-08-16T09:08:14.865Z,97748.64
2018-08-16T09:10:55.713Z,97743.55
2018-08-16T09:13:36.637Z,97742.11
2018-08-16T09:16:18.837Z,97738.80
2018-08-16T09:18:48.194Z,97738.55
2018-08-16T09:21:17.253Z,97736.83
2018-08-16T09:23:46.174Z,97741.14
2018-08-16T09:26:20.416Z,97736.09
2018-08-16T09:28:49.651Z,97737.35
2018-08-16T09:31:29.581Z,97729.11
2018-08-16T09:34:09.496Z,97724.66
2018-08-16T09:36:38.619Z,97722.60
2018-08-16T09:39:09.126Z,97722.60
2018-08-16T09:41:38.996Z,97718.97
2018-08-16T09:44:08.245Z,97716.86
2018-08-16T09:46:50.936Z,97714.86
2018-08-16T09:49:19.919Z,97715.43
2018-08-16T09:51:48.979Z,97714.61
2018-08-16T09:54:17.935Z,97712.27
2018-08-16T09:56:47.344Z,97709.55
2018-08-16T09:59:16.496Z,97709.65
2018-08-16T10:01:45.407Z,97699.58
2018-08-16T10:04:14.324Z,97701.34
2018-08-16T10:06:43.652Z,97701.06
2018-08-16T10:09:21.113Z,97695.94
2018-08-16T10:11:50.212Z,97694.23
2018-08-16T10:14:19.586Z,97689.76
2018-08-16T10:16:48.482Z,97688.87
2018-08-16T10:19:17.854Z,97688.03
2018-08-16T10:21:46.764Z,97684.04
2018-08-16T10:24:15.628Z,97682.38
2018-08-16T10:26:44.502Z,97683.18
2018-08-16T10:29:13.620Z,97678.02
2018-08-16T10:31:42.486Z,97673.73
2018-08-16T10:34:11.334Z,97667.90
2018-08-16T10:36:40.371Z,97676.05
2018-08-16T10:39:16.018Z,97671.98
2018-08-16T10:41:44.779Z,97670.31
2018-08-16T10:44:14.388Z,97674.20
2018-08-16T10:46:43.336Z,97664.34
2018-08-16T10:49:12.412Z,97666.27
2018-08-16T10:51:41.333Z,97660.23
2018-08-16T10:54:10.200Z,97659.76
2018-08-16T10:56:39.097Z,97667.61
2018-08-16T10:59:09.807Z,97662.55
2018-08-16T11:01:39.013Z,97651.69
2018-08-16T11:04:08.842Z,97653.42
2018-08-16T11:06:38.970Z,97653.34
2018-08-16T11:09:10.041Z,97649.88
2018-08-16T11:11:39.354Z,97649.31
2018-08-16T11:14:09.033Z,97643.17
2018-08-16T11:16:38.948Z,97646.78
2018-08-16T11:19:09.913Z,97642.48
2018-08-16T11:21:39.249Z,97642.42
2018-08-16T11:24:09.041Z,97640.58
2018-08-16T11:26:39.048Z,97637.06
2018-08-16T11:29:08.968Z,97632.41
2018-08-16T11:31:37.832Z,97631.82
2018-08-16T11:34:06.666Z,97634.03
2018-08-16T11:36:35.543Z,97630.63
2018-08-16T11:39:05.971Z,97627.05
2018-08-16T11:41:34.941Z,97627.94
2018-08-16T11:44:03.983Z,97622.06
2018-08-16T11:46:33.166Z,97619.69
2018-08-16T11:49:01.938Z,97617.94
2018-08-16T11:51:30.931Z,97626.34
2018-08-16T11:54:00.270Z,97614.33
2018-08-16T11:56:29.151Z,97616.23
2018-08-16T11:58:57.993Z,97617.56
2018-08-16T12:01:27.016Z,97617.00
2018-08-16T12:03:55.834Z,97613.70
2018-08-16T12:11:33.710Z,97620.52
2018-08-16T12:14:02.643Z,97617.70
2018-08-16T12:16:31.525Z,97616.35
2018-08-16T12:19:00.404Z,97617.84
2018-08-16T12:21:29.174Z,97622.34
2018-08-16T12:23:58.061Z,97622.97
2018-08-16T12:26:27.144Z,97617.09
2018-08-16T12:28:56.045Z,97614.87
2018-08-16T12:31:24.863Z,97618.03
2018-08-16T12:33:54.019Z,97613.86
2018-08-16T12:36:22.940Z,97609.77
2018-08-16T12:38:51.750Z,97603.78
2018-08-16T12:41:20.573Z,97610.27
2018-08-16T12:43:49.468Z,97601.55
2018-08-16T12:46:18.344Z,97603.79
2018-08-16T12:48:47.121Z,97598.73
2018-08-16T12:51:16.048Z,97597.63
2018-08-16T12:53:44.932Z,97596.77
2018-08-16T12:56:13.780Z,97591.19
2018-08-16T12:58:42.721Z,97588.94
2018-08-16T13:01:11.524Z,97590.27
2018-08-16T13:03:46.621Z,97579.34
2018-08-16T13:06:15.429Z,97575.55
2018-08-16T13:08:44.334Z,97578.27
2018-08-16T13:11:13.937Z,97578.46
2018-08-16T13:13:42.717Z,97575.38
2018-08-16T13:16:11.642Z,97569.22
2018-08-16T13:18:40.638Z,97568.63
2018-08-16T13:21:10.104Z,97566.05
2018-08-16T13:23:40.085Z,97557.81
2018-08-16T13:33:42.445Z,97554.33
2018-08-16T13:36:11.244Z,97553.91
2018-08-16T13:38:40.229Z,97555.91
2018-08-16T13:41:16.035Z,97552.06
2018-08-16T13:43:44.782Z,97546.16
2018-08-16T13:46:13.715Z,97555.14
2018-08-16T13:51:17.253Z,97539.84
2018-08-16T13:53:46.166Z,97542.66
2018-08-16T13:56:15.002Z,97543.98
2018-08-16T13:58:44.550Z,97542.03
2018-08-16T14:01:13.491Z,97542.00
2018-08-16T14:03:43.045Z,97542.14
2018-08-16T14:06:11.941Z,97534.09
2018-08-16T14:08:40.840Z,97536.64
2018-08-16T14:11:10.524Z,97543.79
2018-08-16T14:13:39.729Z,97534.52
2018-08-16T14:16:08.691Z,97530.73
2018-08-16T14:18:37.596Z,97518.50
2018-08-16T14:21:06.393Z,97531.93
2018-08-16T14:23:35.289Z,97535.84
2018-08-16T14:26:04.176Z,97528.66
2018-08-16T14:28:32.959Z,97529.84
2018-08-16T14:31:01.828Z,97527.04
2018-08-16T14:33:30.713Z,97526.56
2018-08-16T14:38:33.684Z,97518.77
2018-08-16T14:41:02.496Z,97517.95
2018-08-16T14:43:31.392Z,97512.67
2018-08-16T14:46:00.227Z,97510.70
2018-08-16T14:48:29.080Z,97510.89
2018-08-16T14:50:57.948Z,97510.30
2018-08-16T14:53:31.837Z,97510.89
2018-08-16T14:56:03.892Z,97504.16
2018-08-16T14:58:36.783Z,97503.52
2018-08-16T15:01:08.576Z,97503.86
2018-08-16T15:03:39.995Z,97507.29
2018-08-16T15:06:12.577Z,97503.24
2018-08-16T15:08:46.174Z,97498.39
2018-08-16T15:11:16.722Z,97498.27
2018-08-16T15:13:47.031Z,97496.78
2018-08-16T15:16:18.276Z,97490.23
2018-08-16T15:18:50.843Z,97491.97
2018-08-16T15:21:22.317Z,97496.76
2018-08-16T15:23:52.541Z,97498.88
2018-08-16T15:26:22.852Z,97486.45
2018-08-16T15:28:53.627Z,97494.71
2018-08-16T15:31:25.144Z,97490.88
2018-08-16T15:33:56.883Z,97495.72
2018-08-16T15:36:28.355Z,97487.94
2018-08-16T15:41:36.891Z,97489.75
2018-08-16T15:44:10.857Z,97488.50
2018-08-16T15:46:42.194Z,97489.64
2018-08-16T15:49:14.286Z,97482.38
2018-08-16T15:51:45.424Z,97482.66
2018-08-16T15:54:16.872Z,97476.58
2018-08-16T15:56:47.676Z,97468.83
2018-08-16T15:59:18.392Z,97477.02
2018-08-16T16:01:50.880Z,97471.97
2018-08-16T16:04:23.235Z,97475.97
2018-08-16T16:06:53.368Z,97466.86
2018-08-16T16:09:27.799Z,97463.58
2018-08-16T16:14:36.006Z,97463.36
2018-08-16T16:17:06.749Z,97466.00
2018-08-16T16:19:37.514Z,97456.10
2018-08-16T16:22:09.284Z,97455.27
2018-08-16T16:24:41.613Z,97448.54
2018-08-16T16:27:13.455Z,97458.74
2018-08-16T16:29:45.046Z,97457.34
2018-08-16T16:32:16.668Z,97458.68
2018-08-16T16:37:23.269Z,97461.36
2018-08-16T16:39:55.706Z,97456.31
2018-08-16T16:42:26.728Z,97450.66
2018-08-16T16:44:57.502Z,97455.89
2018-08-16T16:47:27.689Z,97459.23
2018-08-16T16:50:00.227Z,97451.38
2018-08-16T16:52:31.572Z,97455.59
2018-08-16T16:55:03.090Z,97453.51
2018-08-16T16:57:36.289Z,97455.37
2018-08-16T17:00:08.387Z,97448.94
2018-08-16T17:02:39.073Z,97448.16
2018-08-16T17:05:10.299Z,97455.98
2018-08-16T17:07:42.290Z,97452.80
2018-08-16T17:10:15.785Z,97454.60
2018-08-16T17:12:45.812Z,97452.77
2018-08-16T17:15:17.756Z,97454.56
2018-08-16T17:17:50.697Z,97457.23
2018-08-16T17:20:22.878Z,97454.53
2018-08-16T17:22:54.856Z,97456.67
2018-08-16T17:25:28.924Z,97456.67
2018-08-16T17:28:01.776Z,97457.75
2018-08-16T17:30:33.807Z,97458.92
2018-08-16T17:33:05.962Z,97459.06
2018-08-16T17:35:37.920Z,97458.01
2018-08-16T17:38:09.969Z,97458.60
2018-08-16T17:40:41.187Z,97462.30
2018-08-16T17:43:14.025Z,97460.84
2018-08-16T17:45:48.375Z,97461.43
2018-08-16T17:48:19.020Z,97462.94
2018-08-16T17:50:49.683Z,97461.59
2018-08-16T17:58:18.089Z,97476.27
2018-08-16T18:00:48.232Z,97473.52
2018-08-16T18:03:21.483Z,97476.00
2018-08-16T18:05:53.483Z,97471.21
2018-08-16T18:08:24.862Z,97475.91
2018-08-16T18:10:56.381Z,97475.05
2018-08-16T18:13:28.433Z,97476.42
2018-08-16T18:15:59.179Z,97473.16
2018-08-16T18:18:30.380Z,97478.19
2018-08-16T18:21:00.635Z,97477.11
2018-08-16T18:23:31.880Z,97475.63
2018-08-16T18:26:05.292Z,97477.53
2018-08-16T18:28:38.154Z,97479.31
2018-08-16T18:31:10.889Z,97479.27
2018-08-16T18:33:43.457Z,97489.20
2018-08-16T18:36:16.661Z,97489.30
2018-08-16T18:38:48.322Z,97488.54
2018-08-16T18:41:20.533Z,97502.01
2018-08-16T18:43:54.216Z,97507.02
2018-08-16T18:46:25.329Z,97513.28
2018-08-16T18:48:57.329Z,97511.21
2018-08-16T18:51:29.323Z,97511.27
2018-08-16T18:54:01.064Z,97519.11
2018-08-16T18:56:32.387Z,97514.56
2018-08-16T18:59:03.529Z,97516.19
2018-08-16T19:01:34.358Z,97521.34
2018-08-16T19:04:04.928Z,97520.05
2018-08-16T19:06:36.703Z,97520.36
2018-08-16T19:09:10.211Z,97522.27
2018-08-16T19:11:40.736Z,97520.67
2018-08-16T19:14:12.438Z,97517.48
2018-08-16T19:16:45.971Z,97529.30
2018-08-16T19:19:16.795Z,97529.85
2018-08-16T19:21:47.561Z,97537.66
2018-08-16T19:24:19.901Z,97537.91
2018-08-16T19:26:50.836Z,97534.45
2018-08-16T19:29:22.605Z,97535.50
2018-08-16T19:31:53.309Z,97532.81
2018-08-16T19:34:25.815Z,97530.16
2018-08-16T19:36:57.560Z,97536.58
2018-08-16T19:39:27.514Z,97535.25
2018-08-16T19:41:58.622Z,97540.86
2018-08-16T19:44:30.248Z,97538.44
2018-08-16T19:47:01.714Z,97542.70
2018-08-16T19:49:36.370Z,97545.11
2018-08-16T19:52:10.410Z,97546.45
2018-08-16T19:54:41.128Z,97546.20
2018-08-16T19:57:17.058Z,97545.11
2018-08-16T19:59:48.358Z,97542.16
2018-08-16T20:02:20.866Z,97535.97
2018-08-16T20:04:50.846Z,97541.04
2018-08-16T20:07:22.517Z,97538.58
2018-08-16T20:09:54.600Z,97534.81
2018-08-16T20:12:26.536Z,97532.37
2018-08-16T20:14:58.457Z,97534.74
2018-08-16T20:17:31.457Z,97540.59
2018-08-16T20:20:04.645Z,97545.19
2018-08-16T20:22:35.943Z,97546.22
2018-08-16T20:25:09.804Z,97547.53
2018-08-16T20:27:41.982Z,97543.45
2018-08-16T20:30:16.852Z,97548.47
2018-08-16T20:32:48.085Z,97546.03
2018-08-16T20:35:20.636Z,97548.20
2018-08-16T20:37:51.693Z,97555.98
2018-08-16T20:40:24.274Z,97556.53
2018-08-16T20:42:54.933Z,97552.20
2018-08-16T20:45:26.712Z,97554.37
2018-08-16T20:50:35.806Z,97557.95
2018-08-16T20:53:07.494Z,97561.50
2018-08-16T20:55:37.749Z,97565.52
2018-08-16T20:58:08.585Z,97557.78
2018-08-16T21:00:39.853Z,97560.92
2018-08-16T21:03:12.889Z,97559.61
2018-08-16T21:05:44.877Z,97559.83
2018-08-16T21:08:16.108Z,97560.91
2018-08-16T21:10:47.572Z,97563.77
2018-08-16T21:13:18.888Z,97568.86
2018-08-16T21:15:51.457Z,97564.90
2018-08-16T21:18:22.414Z,97564.31
2018-08-16T21:20:54.460Z,97564.80
2018-08-16T21:23:28.436Z,97562.97
2018-08-16T21:25:59.456Z,97571.34
2018-08-16T21:28:30.915Z,97569.08
2018-08-16T21:31:03.938Z,97569.08
2018-08-16T21:33:39.115Z,97570.44
2018-08-16T21:36:11.581Z,97570.34
2018-08-16T21:38:42.329Z,97571.73
2018-08-16T21:41:13.312Z,97575.48
2018-08-16T21:43:42.377Z,97568.00
2018-08-16T21:46:13.051Z,97575.22
2018-08-16T21:48:44.534Z,97571.71
2018-08-16T21:51:16.857Z,97572.39
2018-08-16T21:53:48.610Z,97567.72
2018-08-16T21:56:21.714Z,97567.66
2018-08-16T21:58:53.104Z,97569.56
2018-08-16T22:01:25.245Z,97568.55
2018-08-16T22:06:42.951Z,97563.64
2018-08-16T22:09:14.189Z,97561.00
2018-08-16T22:11:46.075Z,97561.34
2018-08-16T22:14:18.577Z,97555.28
2018-08-16T22:16:50.064Z,97557.81
2018-08-16T22:19:20.761Z,97557.97
2018-08-16T22:24:31.558Z,97562.39
2018-08-16T22:27:03.293Z,97566.39
2018-08-16T22:29:36.209Z,97559.03
2018-08-16T22:32:07.599Z,97564.94
2018-08-16T22:34:43.959Z,97569.15
2018-08-16T22:37:15.290Z,97560.59
2018-08-16T22:39:47.450Z,97565.25
2018-08-16T22:42:19.678Z,97555.98
2018-08-16T22:44:52.102Z,97556.05
2018-08-16T22:47:24.269Z,97556.78
2018-08-16T22:49:57.896Z,97552.40
2018-08-16T22:52:30.211Z,97548.38
2018-08-16T22:55:00.933Z,97546.37
2018-08-16T22:57:34.048Z,97548.20
2018-08-16T23:00:04.449Z,97551.72
2018-08-16T23:02:35.992Z,97553.30
2018-08-16T23:05:06.729Z,97557.71
2018-08-16T23:07:38.559Z,97550.06
2018-08-16T23:10:11.074Z,97550.27
2018-08-16T23:12:42.659Z,97546.56
2018-08-16T23:15:15.746Z,97548.11
2018-08-16T23:17:51.694Z,97537.52
2018-08-16T23:20:22.950Z,97540.30
2018-08-16T23:22:57.929Z,97538.16
2018-08-16T23:25:29.187Z,97540.59
2018-08-16T23:28:00.669Z,97537.92
2018-08-16T23:30:32.560Z,97536.44
2018-08-16T23:33:03.256Z,97544.64
2018-08-16T23:35:34.264Z,97535.98
2018-08-16T23:38:08.336Z,97532.80
2018-08-16T23:40:39.664Z,97537.03
2018-08-16T23:43:12.627Z,97531.03
2018-08-16T23:45:44.205Z,97531.44
2018-08-16T23:48:25.057Z,97531.30
2018-08-16T23:50:56.907Z,97536.88
2018-08-16T23:53:29.163Z,97537.84
2018-08-16T23:55:59.920Z,97528.81
2018-08-16T23:58:31.111Z,97524.69
